sensor_id;sensor_type;location;lat;lon;timestamp;P1;durP1;ratioP1;P2;durP2;ratioP2
52188;SDS011;38162;45.926;13.608;2023-12-22T00:01:41;35.93;;;28.17;;
52188;SDS011;38162;45.926;13.608;2023-12-22T00:04:07;32.77;;;21.13;;
52188;SDS011;38162;45.926;13.608;2023-12-22T00:06:33;28.77;;;19.27;;
52188;SDS011;38162;45.926;13.608;2023-12-22T00:08:59;31.77;;;21.90;;
52188;SDS011;38162;45.926;13.608;2023-12-22T00:11:25;31.00;;;21.43;;
52188;SDS011;38162;45.926;13.608;2023-12-22T00:13:51;29.90;;;21.57;;
52188;SDS011;38162;45.926;13.608;2023-12-22T00:16:17;34.20;;;21.97;;
52188;SDS011;38162;45.926;13.608;2023-12-22T00:18:42;35.10;;;21.10;;
52188;SDS011;38162;45.926;13.608;2023-12-22T00:21:11;28.77;;;20.30;;
52188;SDS011;38162;45.926;13.608;2023-12-22T00:23:37;33.73;;;23.10;;
52188;SDS011;38162;45.926;13.608;2023-12-22T00:26:05;38.23;;;24.73;;
52188;SDS011;38162;45.926;13.608;2023-12-22T00:28:31;36.80;;;24.73;;
52188;SDS011;38162;45.926;13.608;2023-12-22T00:30:57;39.50;;;25.37;;
52188;SDS011;38162;45.926;13.608;2023-12-22T00:33:23;42.00;;;28.07;;
52188;SDS011;38162;45.926;13.608;2023-12-22T00:35:50;46.77;;;30.43;;
52188;SDS011;38162;45.926;13.608;2023-12-22T00:38:16;47.77;;;31.27;;
52188;SDS011;38162;45.926;13.608;2023-12-22T00:40:42;43.30;;;29.53;;
52188;SDS011;38162;45.926;13.608;2023-12-22T00:43:08;44.10;;;31.27;;
52188;SDS011;38162;45.926;13.608;2023-12-22T00:45:33;47.40;;;30.23;;
52188;SDS011;38162;45.926;13.608;2023-12-22T00:47:59;48.60;;;30.03;;
52188;SDS011;38162;45.926;13.608;2023-12-22T00:50:25;43.60;;;30.30;;
52188;SDS011;38162;45.926;13.608;2023-12-22T00:52:51;48.77;;;30.80;;
52188;SDS011;38162;45.926;13.608;2023-12-22T00:55:16;47.53;;;30.13;;
52188;SDS011;38162;45.926;13.608;2023-12-22T00:57:42;47.80;;;30.20;;
52188;SDS011;38162;45.926;13.608;2023-12-22T01:00:08;43.10;;;30.77;;
52188;SDS011;38162;45.926;13.608;2023-12-22T01:02:37;41.87;;;29.50;;
52188;SDS011;38162;45.926;13.608;2023-12-22T01:05:03;43.37;;;29.73;;
52188;SDS011;38162;45.926;13.608;2023-12-22T01:07:29;42.43;;;28.50;;
52188;SDS011;38162;45.926;13.608;2023-12-22T01:09:55;44.20;;;30.47;;
52188;SDS011;38162;45.926;13.608;2023-12-22T01:12:26;41.03;;;27.33;;
52188;SDS011;38162;45.926;13.608;2023-12-22T01:14:53;44.33;;;29.37;;
52188;SDS011;38162;45.926;13.608;2023-12-22T01:17:19;39.73;;;27.60;;
52188;SDS011;38162;45.926;13.608;2023-12-22T01:19:45;39.50;;;27.77;;
52188;SDS011;38162;45.926;13.608;2023-12-22T01:22:10;42.90;;;28.70;;
52188;SDS011;38162;45.926;13.608;2023-12-22T01:24:36;38.57;;;26.77;;
52188;SDS011;38162;45.926;13.608;2023-12-22T01:27:04;39.53;;;26.83;;
52188;SDS011;38162;45.926;13.608;2023-12-22T01:29:30;39.97;;;27.07;;
52188;SDS011;38162;45.926;13.608;2023-12-22T01:31:56;36.40;;;27.00;;
52188;SDS011;38162;45.926;13.608;2023-12-22T01:34:22;41.83;;;26.27;;
52188;SDS011;38162;45.926;13.608;2023-12-22T01:36:47;33.80;;;24.37;;
52188;SDS011;38162;45.926;13.608;2023-12-22T01:39:14;35.57;;;25.73;;
52188;SDS011;38162;45.926;13.608;2023-12-22T01:41:40;36.17;;;25.30;;
52188;SDS011;38162;45.926;13.608;2023-12-22T01:44:06;36.13;;;23.97;;
52188;SDS011;38162;45.926;13.608;2023-12-22T01:46:32;30.53;;;22.27;;
52188;SDS011;38162;45.926;13.608;2023-12-22T01:48:59;32.97;;;22.67;;
52188;SDS011;38162;45.926;13.608;2023-12-22T01:51:31;35.33;;;22.23;;
52188;SDS011;38162;45.926;13.608;2023-12-22T01:53:59;28.87;;;20.13;;
52188;SDS011;38162;45.926;13.608;2023-12-22T01:56:25;34.43;;;20.50;;
52188;SDS011;38162;45.926;13.608;2023-12-22T01:58:55;30.17;;;19.43;;
52188;SDS011;38162;45.926;13.608;2023-12-22T02:01:24;25.60;;;17.92;;
52188;SDS011;38162;45.926;13.608;2023-12-22T02:03:51;25.47;;;18.63;;
52188;SDS011;38162;45.926;13.608;2023-12-22T02:06:17;31.03;;;18.60;;
52188;SDS011;38162;45.926;13.608;2023-12-22T02:08:46;27.73;;;18.77;;
52188;SDS011;38162;45.926;13.608;2023-12-22T02:11:12;26.13;;;18.30;;
52188;SDS011;38162;45.926;13.608;2023-12-22T02:13:42;28.53;;;19.00;;
52188;SDS011;38162;45.926;13.608;2023-12-22T02:16:20;31.43;;;19.73;;
52188;SDS011;38162;45.926;13.608;2023-12-22T02:18:49;32.07;;;19.47;;
52188;SDS011;38162;45.926;13.608;2023-12-22T02:21:17;27.93;;;18.40;;
52188;SDS011;38162;45.926;13.608;2023-12-22T02:23:43;28.87;;;18.80;;
52188;SDS011;38162;45.926;13.608;2023-12-22T02:26:12;33.57;;;19.83;;
52188;SDS011;38162;45.926;13.608;2023-12-22T02:28:49;32.63;;;19.67;;
52188;SDS011;38162;45.926;13.608;2023-12-22T02:31:17;34.30;;;21.23;;
52188;SDS011;38162;45.926;13.608;2023-12-22T02:33:57;32.57;;;22.07;;
52188;SDS011;38162;45.926;13.608;2023-12-22T02:36:25;34.53;;;23.17;;
52188;SDS011;38162;45.926;13.608;2023-12-22T02:38:51;35.47;;;23.43;;
52188;SDS011;38162;45.926;13.608;2023-12-22T02:41:20;36.10;;;23.90;;
52188;SDS011;38162;45.926;13.608;2023-12-22T02:43:46;34.23;;;23.80;;
52188;SDS011;38162;45.926;13.608;2023-12-22T02:46:16;36.40;;;24.17;;
52188;SDS011;38162;45.926;13.608;2023-12-22T02:48:41;33.20;;;23.30;;
52188;SDS011;38162;45.926;13.608;2023-12-22T02:51:07;33.60;;;23.20;;
52188;SDS011;38162;45.926;13.608;2023-12-22T02:53:33;33.77;;;23.90;;
52188;SDS011;38162;45.926;13.608;2023-12-22T02:55:59;34.33;;;24.47;;
52188;SDS011;38162;45.926;13.608;2023-12-22T02:58:24;38.37;;;25.97;;
52188;SDS011;38162;45.926;13.608;2023-12-22T03:00:50;31.67;;;23.60;;
52188;SDS011;38162;45.926;13.608;2023-12-22T03:03:16;38.57;;;24.40;;
52188;SDS011;38162;45.926;13.608;2023-12-22T03:05:41;37.13;;;25.50;;
52188;SDS011;38162;45.926;13.608;2023-12-22T03:08:07;37.83;;;25.33;;
52188;SDS011;38162;45.926;13.608;2023-12-22T03:10:33;38.10;;;24.03;;
52188;SDS011;38162;45.926;13.608;2023-12-22T03:12:59;35.87;;;23.73;;
52188;SDS011;38162;45.926;13.608;2023-12-22T03:15:24;36.63;;;23.60;;
52188;SDS011;38162;45.926;13.608;2023-12-22T03:17:50;37.63;;;22.40;;
52188;SDS011;38162;45.926;13.608;2023-12-22T03:20:16;28.73;;;22.00;;
52188;SDS011;38162;45.926;13.608;2023-12-22T03:22:42;33.27;;;21.73;;
52188;SDS011;38162;45.926;13.608;2023-12-22T03:25:08;31.23;;;21.37;;
52188;SDS011;38162;45.926;13.608;2023-12-22T03:27:34;36.20;;;23.30;;
52188;SDS011;38162;45.926;13.608;2023-12-22T03:29:59;35.87;;;21.87;;
52188;SDS011;38162;45.926;13.608;2023-12-22T03:32:26;38.17;;;23.77;;
52188;SDS011;38162;45.926;13.608;2023-12-22T03:34:52;32.30;;;23.37;;
52188;SDS011;38162;45.926;13.608;2023-12-22T03:37:18;33.57;;;22.70;;
52188;SDS011;38162;45.926;13.608;2023-12-22T03:39:44;32.67;;;23.53;;
52188;SDS011;38162;45.926;13.608;2023-12-22T03:42:10;33.80;;;23.80;;
52188;SDS011;38162;45.926;13.608;2023-12-22T03:44:35;32.47;;;22.97;;
52188;SDS011;38162;45.926;13.608;2023-12-22T03:47:01;31.13;;;23.23;;
52188;SDS011;38162;45.926;13.608;2023-12-22T03:49:27;34.20;;;21.93;;
52188;SDS011;38162;45.926;13.608;2023-12-22T03:51:53;34.73;;;23.10;;
52188;SDS011;38162;45.926;13.608;2023-12-22T03:54:18;31.93;;;22.47;;
52188;SDS011;38162;45.926;13.608;2023-12-22T03:56:44;35.97;;;22.03;;
52188;SDS011;38162;45.926;13.608;2023-12-22T03:59:10;35.37;;;22.50;;
52188;SDS011;38162;45.926;13.608;2023-12-22T04:01:36;37.47;;;20.93;;
52188;SDS011;38162;45.926;13.608;2023-12-22T04:04:01;33.47;;;21.43;;
52188;SDS011;38162;45.926;13.608;2023-12-22T04:12:23;28.70;;;20.73;;
52188;SDS011;38162;45.926;13.608;2023-12-22T04:14:49;29.87;;;20.40;;
52188;SDS011;38162;45.926;13.608;2023-12-22T04:17:15;35.23;;;20.47;;
52188;SDS011;38162;45.926;13.608;2023-12-22T04:19:41;30.07;;;20.53;;
52188;SDS011;38162;45.926;13.608;2023-12-22T04:22:06;28.93;;;20.13;;
52188;SDS011;38162;45.926;13.608;2023-12-22T04:24:32;28.93;;;19.90;;
52188;SDS011;38162;45.926;13.608;2023-12-22T04:26:58;31.23;;;19.97;;
52188;SDS011;38162;45.926;13.608;2023-12-22T04:29:23;27.00;;;21.70;;
52188;SDS011;38162;45.926;13.608;2023-12-22T04:31:49;27.83;;;20.10;;
52188;SDS011;38162;45.926;13.608;2023-12-22T04:34:15;32.47;;;21.27;;
52188;SDS011;38162;45.926;13.608;2023-12-22T04:36:41;32.97;;;20.97;;
52188;SDS011;38162;45.926;13.608;2023-12-22T04:39:07;33.10;;;21.57;;
52188;SDS011;38162;45.926;13.608;2023-12-22T04:41:33;33.23;;;20.17;;
52188;SDS011;38162;45.926;13.608;2023-12-22T04:43:58;27.47;;;19.83;;
52188;SDS011;38162;45.926;13.608;2023-12-22T04:46:28;32.03;;;21.17;;
52188;SDS011;38162;45.926;13.608;2023-12-22T04:48:55;29.63;;;19.27;;
52188;SDS011;38162;45.926;13.608;2023-12-22T04:51:20;29.10;;;20.07;;
52188;SDS011;38162;45.926;13.608;2023-12-22T04:53:46;30.97;;;20.40;;
52188;SDS011;38162;45.926;13.608;2023-12-22T04:56:12;33.30;;;20.37;;
52188;SDS011;38162;45.926;13.608;2023-12-22T04:58:38;31.70;;;21.93;;
52188;SDS011;38162;45.926;13.608;2023-12-22T05:01:04;33.00;;;22.13;;
52188;SDS011;38162;45.926;13.608;2023-12-22T05:03:30;35.33;;;21.37;;
52188;SDS011;38162;45.926;13.608;2023-12-22T05:05:55;32.07;;;21.20;;
52188;SDS011;38162;45.926;13.608;2023-12-22T05:08:21;30.33;;;21.93;;
52188;SDS011;38162;45.926;13.608;2023-12-22T05:10:47;33.40;;;21.83;;
52188;SDS011;38162;45.926;13.608;2023-12-22T05:13:12;30.63;;;22.47;;
52188;SDS011;38162;45.926;13.608;2023-12-22T05:15:38;35.77;;;23.97;;
52188;SDS011;38162;45.926;13.608;2023-12-22T05:18:04;34.47;;;22.60;;
52188;SDS011;38162;45.926;13.608;2023-12-22T05:20:29;34.50;;;24.47;;
52188;SDS011;38162;45.926;13.608;2023-12-22T05:22:55;34.03;;;23.70;;
52188;SDS011;38162;45.926;13.608;2023-12-22T05:25:21;34.23;;;23.97;;
52188;SDS011;38162;45.926;13.608;2023-12-22T05:27:47;36.07;;;23.97;;
52188;SDS011;38162;45.926;13.608;2023-12-22T05:30:13;33.57;;;24.70;;
52188;SDS011;38162;45.926;13.608;2023-12-22T05:32:39;36.90;;;24.67;;
52188;SDS011;38162;45.926;13.608;2023-12-22T05:35:05;34.33;;;24.10;;
52188;SDS011;38162;45.926;13.608;2023-12-22T05:37:31;34.57;;;24.17;;
52188;SDS011;38162;45.926;13.608;2023-12-22T05:39:56;32.93;;;23.67;;
52188;SDS011;38162;45.926;13.608;2023-12-22T05:42:22;33.97;;;25.20;;
52188;SDS011;38162;45.926;13.608;2023-12-22T05:44:48;32.43;;;24.87;;
52188;SDS011;38162;45.926;13.608;2023-12-22T05:47:15;40.17;;;25.83;;
52188;SDS011;38162;45.926;13.608;2023-12-22T05:49:43;41.23;;;26.93;;
52188;SDS011;38162;45.926;13.608;2023-12-22T05:52:09;34.97;;;26.33;;
52188;SDS011;38162;45.926;13.608;2023-12-22T05:54:37;33.77;;;25.87;;
52188;SDS011;38162;45.926;13.608;2023-12-22T05:57:03;52.17;;;32.50;;
52188;SDS011;38162;45.926;13.608;2023-12-22T05:59:31;48.90;;;34.50;;
52188;SDS011;38162;45.926;13.608;2023-12-22T06:01:58;51.90;;;34.43;;
52188;SDS011;38162;45.926;13.608;2023-12-22T06:04:24;57.03;;;37.70;;
52188;SDS011;38162;45.926;13.608;2023-12-22T06:06:50;52.57;;;35.40;;
52188;SDS011;38162;45.926;13.608;2023-12-22T06:09:16;48.47;;;32.23;;
52188;SDS011;38162;45.926;13.608;2023-12-22T06:11:43;36.00;;;26.03;;
52188;SDS011;38162;45.926;13.608;2023-12-22T06:14:10;36.70;;;25.53;;
52188;SDS011;38162;45.926;13.608;2023-12-22T06:16:35;36.73;;;24.57;;
52188;SDS011;38162;45.926;13.608;2023-12-22T06:19:01;36.73;;;25.33;;
52188;SDS011;38162;45.926;13.608;2023-12-22T06:21:27;37.87;;;26.73;;
52188;SDS011;38162;45.926;13.608;2023-12-22T06:23:53;36.90;;;26.30;;
52188;SDS011;38162;45.926;13.608;2023-12-22T06:26:18;36.70;;;26.43;;
52188;SDS011;38162;45.926;13.608;2023-12-22T06:28:44;40.80;;;28.07;;
52188;SDS011;38162;45.926;13.608;2023-12-22T06:31:17;33.77;;;25.20;;
52188;SDS011;38162;45.926;13.608;2023-12-22T06:33:44;37.43;;;26.53;;
52188;SDS011;38162;45.926;13.608;2023-12-22T06:36:19;38.77;;;28.37;;
52188;SDS011;38162;45.926;13.608;2023-12-22T06:38:46;39.37;;;26.80;;
52188;SDS011;38162;45.926;13.608;2023-12-22T06:41:22;37.10;;;27.20;;
52188;SDS011;38162;45.926;13.608;2023-12-22T06:43:50;40.17;;;27.47;;
52188;SDS011;38162;45.926;13.608;2023-12-22T06:46:16;37.83;;;27.63;;
52188;SDS011;38162;45.926;13.608;2023-12-22T06:48:43;40.00;;;27.67;;
52188;SDS011;38162;45.926;13.608;2023-12-22T06:53:44;39.00;;;28.30;;
52188;SDS011;38162;45.926;13.608;2023-12-22T06:56:23;46.23;;;28.70;;
52188;SDS011;38162;45.926;13.608;2023-12-22T06:58:51;46.33;;;28.57;;
52188;SDS011;38162;45.926;13.608;2023-12-22T07:01:19;68.87;;;30.53;;
52188;SDS011;38162;45.926;13.608;2023-12-22T07:03:48;68.90;;;30.50;;
52188;SDS011;38162;45.926;13.608;2023-12-22T07:06:14;67.17;;;31.60;;
52188;SDS011;38162;45.926;13.608;2023-12-22T07:08:40;96.80;;;32.27;;
52188;SDS011;38162;45.926;13.608;2023-12-22T07:11:07;67.80;;;30.57;;
52188;SDS011;38162;45.926;13.608;2023-12-22T07:13:36;67.30;;;30.63;;
52188;SDS011;38162;45.926;13.608;2023-12-22T07:16:03;60.77;;;29.70;;
52188;SDS011;38162;45.926;13.608;2023-12-22T07:18:30;47.87;;;29.27;;
52188;SDS011;38162;45.926;13.608;2023-12-22T07:20:56;46.90;;;30.33;;
52188;SDS011;38162;45.926;13.608;2023-12-22T07:23:23;52.70;;;29.13;;
52188;SDS011;38162;45.926;13.608;2023-12-22T07:25:49;41.87;;;27.63;;
52188;SDS011;38162;45.926;13.608;2023-12-22T07:28:14;42.53;;;28.80;;
52188;SDS011;38162;45.926;13.608;2023-12-22T07:30:43;46.90;;;30.80;;
52188;SDS011;38162;45.926;13.608;2023-12-22T07:33:08;47.17;;;29.90;;
52188;SDS011;38162;45.926;13.608;2023-12-22T07:35:34;52.57;;;32.10;;
52188;SDS011;38162;45.926;13.608;2023-12-22T07:38:00;56.77;;;33.17;;
52188;SDS011;38162;45.926;13.608;2023-12-22T07:40:28;53.30;;;33.23;;
52188;SDS011;38162;45.926;13.608;2023-12-22T07:42:55;63.70;;;33.50;;
52188;SDS011;38162;45.926;13.608;2023-12-22T07:45:22;55.43;;;33.90;;
52188;SDS011;38162;45.926;13.608;2023-12-22T07:47:47;62.70;;;32.60;;
52188;SDS011;38162;45.926;13.608;2023-12-22T07:50:13;54.87;;;33.53;;
52188;SDS011;38162;45.926;13.608;2023-12-22T07:52:39;55.27;;;30.70;;
52188;SDS011;38162;45.926;13.608;2023-12-22T07:55:05;53.07;;;33.03;;
52188;SDS011;38162;45.926;13.608;2023-12-22T07:57:33;48.53;;;30.93;;
52188;SDS011;38162;45.926;13.608;2023-12-22T07:59:59;56.77;;;31.67;;
52188;SDS011;38162;45.926;13.608;2023-12-22T08:02:24;53.37;;;31.70;;
52188;SDS011;38162;45.926;13.608;2023-12-22T08:04:50;55.30;;;32.57;;
52188;SDS011;38162;45.926;13.608;2023-12-22T08:07:16;54.20;;;30.80;;
52188;SDS011;38162;45.926;13.608;2023-12-22T08:09:42;50.87;;;29.40;;
52188;SDS011;38162;45.926;13.608;2023-12-22T08:12:07;52.27;;;30.50;;
52188;SDS011;38162;45.926;13.608;2023-12-22T08:14:33;49.67;;;31.60;;
52188;SDS011;38162;45.926;13.608;2023-12-22T08:16:59;48.97;;;30.97;;
52188;SDS011;38162;45.926;13.608;2023-12-22T08:19:25;59.47;;;29.60;;
52188;SDS011;38162;45.926;13.608;2023-12-22T08:21:53;50.87;;;28.70;;
52188;SDS011;38162;45.926;13.608;2023-12-22T08:24:20;47.17;;;27.73;;
52188;SDS011;38162;45.926;13.608;2023-12-22T08:26:46;52.97;;;30.33;;
52188;SDS011;38162;45.926;13.608;2023-12-22T08:29:13;45.23;;;29.27;;
52188;SDS011;38162;45.926;13.608;2023-12-22T08:31:39;48.23;;;29.57;;
52188;SDS011;38162;45.926;13.608;2023-12-22T08:34:05;50.63;;;27.93;;
52188;SDS011;38162;45.926;13.608;2023-12-22T08:36:31;42.13;;;26.80;;
52188;SDS011;38162;45.926;13.608;2023-12-22T08:38:57;45.13;;;29.23;;
52188;SDS011;38162;45.926;13.608;2023-12-22T08:41:23;41.47;;;27.03;;
52188;SDS011;38162;45.926;13.608;2023-12-22T08:43:49;43.87;;;28.33;;
52188;SDS011;38162;45.926;13.608;2023-12-22T08:46:15;45.87;;;28.17;;
52188;SDS011;38162;45.926;13.608;2023-12-22T08:48:41;48.60;;;28.10;;
52188;SDS011;38162;45.926;13.608;2023-12-22T08:51:07;47.73;;;31.17;;
52188;SDS011;38162;45.926;13.608;2023-12-22T08:53:33;58.20;;;35.23;;
52188;SDS011;38162;45.926;13.608;2023-12-22T08:56:02;56.10;;;34.63;;
52188;SDS011;38162;45.926;13.608;2023-12-22T08:58:29;47.97;;;32.67;;
52188;SDS011;38162;45.926;13.608;2023-12-22T09:00:54;49.00;;;32.20;;
52188;SDS011;38162;45.926;13.608;2023-12-22T09:03:20;44.67;;;32.30;;
52188;SDS011;38162;45.926;13.608;2023-12-22T09:05:46;47.80;;;32.40;;
52188;SDS011;38162;45.926;13.608;2023-12-22T09:08:12;45.67;;;30.90;;
52188;SDS011;38162;45.926;13.608;2023-12-22T09:10:38;47.43;;;30.87;;
52188;SDS011;38162;45.926;13.608;2023-12-22T09:13:04;46.63;;;31.60;;
52188;SDS011;38162;45.926;13.608;2023-12-22T09:15:29;49.20;;;31.37;;
52188;SDS011;38162;45.926;13.608;2023-12-22T09:17:55;41.63;;;29.97;;
52188;SDS011;38162;45.926;13.608;2023-12-22T09:20:21;47.60;;;30.47;;
52188;SDS011;38162;45.926;13.608;2023-12-22T09:22:47;45.03;;;30.33;;
52188;SDS011;38162;45.926;13.608;2023-12-22T09:25:13;36.90;;;28.37;;
52188;SDS011;38162;45.926;13.608;2023-12-22T09:27:39;35.37;;;26.63;;
52188;SDS011;38162;45.926;13.608;2023-12-22T09:30:05;40.80;;;27.10;;
52188;SDS011;38162;45.926;13.608;2023-12-22T09:32:34;36.23;;;26.77;;
52188;SDS011;38162;45.926;13.608;2023-12-22T09:35:00;32.63;;;26.73;;
52188;SDS011;38162;45.926;13.608;2023-12-22T09:37:26;36.57;;;26.47;;
52188;SDS011;38162;45.926;13.608;2023-12-22T09:39:52;36.87;;;25.50;;
52188;SDS011;38162;45.926;13.608;2023-12-22T09:42:19;38.53;;;26.83;;
52188;SDS011;38162;45.926;13.608;2023-12-22T09:44:46;37.93;;;26.10;;
52188;SDS011;38162;45.926;13.608;2023-12-22T09:47:18;36.77;;;27.43;;
52188;SDS011;38162;45.926;13.608;2023-12-22T09:49:44;47.80;;;31.73;;
52188;SDS011;38162;45.926;13.608;2023-12-22T09:52:11;47.37;;;35.67;;
52188;SDS011;38162;45.926;13.608;2023-12-22T09:54:38;46.37;;;35.37;;
52188;SDS011;38162;45.926;13.608;2023-12-22T09:57:06;58.33;;;40.53;;
52188;SDS011;38162;45.926;13.608;2023-12-22T09:59:32;62.27;;;42.73;;
52188;SDS011;38162;45.926;13.608;2023-12-22T10:02:00;64.10;;;44.33;;
52188;SDS011;38162;45.926;13.608;2023-12-22T10:04:27;54.90;;;41.20;;
52188;SDS011;38162;45.926;13.608;2023-12-22T10:06:53;56.70;;;39.63;;
52188;SDS011;38162;45.926;13.608;2023-12-22T10:09:25;54.58;;;37.72;;
52188;SDS011;38162;45.926;13.608;2023-12-22T10:11:52;45.50;;;35.60;;
52188;SDS011;38162;45.926;13.608;2023-12-22T10:14:19;51.47;;;36.87;;
52188;SDS011;38162;45.926;13.608;2023-12-22T10:16:50;47.43;;;35.87;;
52188;SDS011;38162;45.926;13.608;2023-12-22T10:19:16;52.43;;;38.70;;
52188;SDS011;38162;45.926;13.608;2023-12-22T10:21:42;56.93;;;38.47;;
52188;SDS011;38162;45.926;13.608;2023-12-22T10:24:23;49.67;;;36.53;;
52188;SDS011;38162;45.926;13.608;2023-12-22T10:27:12;53.67;;;37.93;;
52188;SDS011;38162;45.926;13.608;2023-12-22T10:29:39;52.43;;;39.30;;
52188;SDS011;38162;45.926;13.608;2023-12-22T10:32:05;55.50;;;41.60;;
52188;SDS011;38162;45.926;13.608;2023-12-22T10:34:32;56.83;;;42.20;;
52188;SDS011;38162;45.926;13.608;2023-12-22T10:36:58;58.97;;;41.70;;
52188;SDS011;38162;45.926;13.608;2023-12-22T10:39:29;55.73;;;41.67;;
52188;SDS011;38162;45.926;13.608;2023-12-22T10:41:59;60.80;;;42.93;;
52188;SDS011;38162;45.926;13.608;2023-12-22T10:44:26;57.87;;;42.37;;
52188;SDS011;38162;45.926;13.608;2023-12-22T10:46:52;58.83;;;42.47;;
52188;SDS011;38162;45.926;13.608;2023-12-22T10:49:20;54.17;;;41.97;;
52188;SDS011;38162;45.926;13.608;2023-12-22T10:51:46;57.03;;;42.53;;
52188;SDS011;38162;45.926;13.608;2023-12-22T10:54:12;60.00;;;44.17;;
52188;SDS011;38162;45.926;13.608;2023-12-22T10:56:39;57.33;;;42.83;;
52188;SDS011;38162;45.926;13.608;2023-12-22T10:59:05;54.77;;;41.60;;
52188;SDS011;38162;45.926;13.608;2023-12-22T11:01:35;55.17;;;41.80;;
52188;SDS011;38162;45.926;13.608;2023-12-22T11:04:05;55.77;;;41.40;;
52188;SDS011;38162;45.926;13.608;2023-12-22T11:06:37;58.50;;;43.08;;
52188;SDS011;38162;45.926;13.608;2023-12-22T11:09:08;54.33;;;42.30;;
52188;SDS011;38162;45.926;13.608;2023-12-22T11:11:34;56.80;;;42.17;;
52188;SDS011;38162;45.926;13.608;2023-12-22T11:14:03;57.57;;;44.03;;
52188;SDS011;38162;45.926;13.608;2023-12-22T11:16:30;57.78;;;43.33;;
52188;SDS011;38162;45.926;13.608;2023-12-22T11:19:01;54.92;;;42.38;;
52188;SDS011;38162;45.926;13.608;2023-12-22T11:21:28;60.10;;;42.95;;
52188;SDS011;38162;45.926;13.608;2023-12-22T11:23:54;61.25;;;42.55;;
52188;SDS011;38162;45.926;13.608;2023-12-22T11:26:21;54.95;;;41.42;;
52188;SDS011;38162;45.926;13.608;2023-12-22T11:28:48;58.85;;;41.85;;
52188;SDS011;38162;45.926;13.608;2023-12-22T11:31:15;58.45;;;42.05;;
52188;SDS011;38162;45.926;13.608;2023-12-22T11:33:48;56.95;;;42.33;;
52188;SDS011;38162;45.926;13.608;2023-12-22T11:36:15;58.90;;;40.80;;
52188;SDS011;38162;45.926;13.608;2023-12-22T11:38:44;52.47;;;40.83;;
52188;SDS011;38162;45.926;13.608;2023-12-22T11:41:12;60.00;;;40.28;;
52188;SDS011;38162;45.926;13.608;2023-12-22T11:43:41;52.07;;;42.07;;
52188;SDS011;38162;45.926;13.608;2023-12-22T11:46:09;53.95;;;40.55;;
52188;SDS011;38162;45.926;13.608;2023-12-22T11:48:35;51.05;;;39.90;;
52188;SDS011;38162;45.926;13.608;2023-12-22T11:51:02;50.40;;;39.90;;
52188;SDS011;38162;45.926;13.608;2023-12-22T11:53:38;46.92;;;37.53;;
52188;SDS011;38162;45.926;13.608;2023-12-22T11:56:05;55.53;;;39.40;;
52188;SDS011;38162;45.926;13.608;2023-12-22T11:58:37;49.53;;;38.55;;
52188;SDS011;38162;45.926;13.608;2023-12-22T12:01:11;49.47;;;38.67;;
52188;SDS011;38162;45.926;13.608;2023-12-22T12:03:40;52.92;;;38.50;;
52188;SDS011;38162;45.926;13.608;2023-12-22T12:06:16;51.30;;;37.95;;
52188;SDS011;38162;45.926;13.608;2023-12-22T12:08:42;49.25;;;37.08;;
52188;SDS011;38162;45.926;13.608;2023-12-22T12:11:08;45.78;;;35.95;;
52188;SDS011;38162;45.926;13.608;2023-12-22T12:13:34;49.80;;;36.55;;
52188;SDS011;38162;45.926;13.608;2023-12-22T12:16:06;49.38;;;36.42;;
52188;SDS011;38162;45.926;13.608;2023-12-22T12:18:32;48.25;;;37.08;;
52188;SDS011;38162;45.926;13.608;2023-12-22T12:20:59;50.00;;;36.35;;
52188;SDS011;38162;45.926;13.608;2023-12-22T12:23:29;48.47;;;36.90;;
52188;SDS011;38162;45.926;13.608;2023-12-22T12:25:55;46.80;;;37.15;;
52188;SDS011;38162;45.926;13.608;2023-12-22T12:28:25;45.78;;;37.30;;
52188;SDS011;38162;45.926;13.608;2023-12-22T12:30:58;48.88;;;36.00;;
52188;SDS011;38162;45.926;13.608;2023-12-22T12:33:25;47.67;;;36.03;;
52188;SDS011;38162;45.926;13.608;2023-12-22T12:35:56;47.30;;;36.45;;
52188;SDS011;38162;45.926;13.608;2023-12-22T12:38:23;48.05;;;38.08;;
52188;SDS011;38162;45.926;13.608;2023-12-22T12:41:05;46.17;;;37.97;;
52188;SDS011;38162;45.926;13.608;2023-12-22T12:43:31;47.80;;;36.47;;
52188;SDS011;38162;45.926;13.608;2023-12-22T12:46:04;51.25;;;36.75;;
52188;SDS011;38162;45.926;13.608;2023-12-22T12:48:30;46.95;;;36.60;;
52188;SDS011;38162;45.926;13.608;2023-12-22T12:51:01;46.95;;;36.92;;
52188;SDS011;38162;45.926;13.608;2023-12-22T12:53:33;54.50;;;36.10;;
52188;SDS011;38162;45.926;13.608;2023-12-22T12:56:01;44.63;;;35.15;;
52188;SDS011;38162;45.926;13.608;2023-12-22T12:58:27;48.60;;;37.83;;
52188;SDS011;38162;45.926;13.608;2023-12-22T13:01:03;48.10;;;38.05;;
52188;SDS011;38162;45.926;13.608;2023-12-22T13:03:30;45.13;;;36.42;;
52188;SDS011;38162;45.926;13.608;2023-12-22T13:06:08;49.72;;;38.53;;
52188;SDS011;38162;45.926;13.608;2023-12-22T13:08:34;51.45;;;36.58;;
52188;SDS011;38162;45.926;13.608;2023-12-22T13:11:00;49.25;;;37.72;;
52188;SDS011;38162;45.926;13.608;2023-12-22T13:13:27;50.70;;;38.25;;
52188;SDS011;38162;45.926;13.608;2023-12-22T13:15:53;47.85;;;37.05;;
52188;SDS011;38162;45.926;13.608;2023-12-22T13:18:18;52.17;;;37.53;;
52188;SDS011;38162;45.926;13.608;2023-12-22T13:20:44;50.17;;;38.63;;
52188;SDS011;38162;45.926;13.608;2023-12-22T13:23:10;49.40;;;39.10;;
52188;SDS011;38162;45.926;13.608;2023-12-22T13:25:39;48.22;;;35.63;;
52188;SDS011;38162;45.926;13.608;2023-12-22T13:28:05;45.40;;;36.28;;
52188;SDS011;38162;45.926;13.608;2023-12-22T13:30:38;52.30;;;37.45;;
52188;SDS011;38162;45.926;13.608;2023-12-22T13:33:09;48.42;;;35.72;;
52188;SDS011;38162;45.926;13.608;2023-12-22T13:35:35;46.63;;;36.85;;
52188;SDS011;38162;45.926;13.608;2023-12-22T13:38:02;50.05;;;37.95;;
52188;SDS011;38162;45.926;13.608;2023-12-22T13:40:31;49.05;;;36.60;;
52188;SDS011;38162;45.926;13.608;2023-12-22T13:42:58;47.17;;;37.25;;
52188;SDS011;38162;45.926;13.608;2023-12-22T13:45:24;47.90;;;38.10;;
52188;SDS011;38162;45.926;13.608;2023-12-22T13:47:50;48.08;;;37.25;;
52188;SDS011;38162;45.926;13.608;2023-12-22T13:50:16;52.28;;;36.67;;
52188;SDS011;38162;45.926;13.608;2023-12-22T13:52:43;44.42;;;34.38;;
52188;SDS011;38162;45.926;13.608;2023-12-22T13:55:13;49.65;;;35.80;;
52188;SDS011;38162;45.926;13.608;2023-12-22T13:57:40;44.33;;;34.72;;
52188;SDS011;38162;45.926;13.608;2023-12-22T14:02:47;47.78;;;35.13;;
52188;SDS011;38162;45.926;13.608;2023-12-22T14:05:17;45.50;;;34.13;;
52188;SDS011;38162;45.926;13.608;2023-12-22T14:07:43;48.17;;;36.13;;
52188;SDS011;38162;45.926;13.608;2023-12-22T14:10:10;49.08;;;36.00;;
52188;SDS011;38162;45.926;13.608;2023-12-22T14:12:36;48.63;;;34.22;;
52188;SDS011;38162;45.926;13.608;2023-12-22T14:15:06;45.95;;;35.72;;
52188;SDS011;38162;45.926;13.608;2023-12-22T14:17:32;50.38;;;36.20;;
52188;SDS011;38162;45.926;13.608;2023-12-22T14:19:58;47.53;;;35.42;;